Norient Star — 9HRV9 — position and weather

sailwx.info

Track history (hours):
 
Tides and Currents Weather Stations Pressure Air Temp Water Temp Dewpoint Dewpoint Depression Visibility Wind Speed Wind Dir Waves Ship Positions

Norient Star

Last reported at 2015-Jul-16 16:32 UTC. Time now 2015-Jul-31 01:02 UTC.
Position S 29°42' E 031°42'.
Warning: this ship's position is 14 days out of date.

; draft 9.8 m.

Type: Tanker. MMSI: 249434000.

Date/timePositionNaut miles runAvg speedWind from/ knotsBaromVisibWave heightAir tempDewpointWater temp
2015-Jul-16 16:32S 29°42' E 031°42'1111.3
2015-Jul-16 15:33S 29°45' E 031°30'1313.0
2015-Jul-16 14:33S 29°48' E 031°15'1010.4
2015-Jul-16 13:33S 29°52' E 031°04'2 1.8
2015-Jul-16 12:32S 29°53' E 031°03'0 0.0
2015-Jul-16 11:32S 29°53' E 031°03'0 0.0
2015-Jul-16 10:32S 29°53' E 031°03'0 0.0
2015-Jul-16 09:32S 29°53' E 031°03'0 0.0
2015-Jul-16 08:32S 29°53' E 031°03'0 0.0
2015-Jul-16 07:32S 29°53' E 031°03'0 0.0
2015-Jul-16 06:32S 29°53' E 031°03'0 0.0
2015-Jul-16 05:32S 29°53' E 031°03'0 0.0
2015-Jul-16 04:32S 29°53' E 031°03'0 0.0
2015-Jul-16 03:32S 29°53' E 031°03'0 0.0
2015-Jul-16 02:32S 29°53' E 031°03'0 0.0
2015-Jul-16 01:32S 29°53' E 031°03'0 0.0
2015-Jul-16 00:32S 29°53' E 031°03'0 0.0
2015-Jul-15 23:32S 29°53' E 031°03'0 0.0
2015-Jul-15 22:32S 29°53' E 031°03'0 0.0
2015-Jul-15 21:32S 29°53' E 031°03'0 0.0
2015-Jul-15 20:32S 29°53' E 031°03'0 0.0
2015-Jul-15 19:32S 29°53' E 031°03'0 0.0
2015-Jul-15 18:32S 29°53' E 031°03'0 0.0
2015-Jul-15 17:32S 29°53' E 031°03'0 0.0
2015-Jul-15 16:32S 29°53' E 031°03'0 0.0
2015-Jul-15 15:32S 29°53' E 031°03'0 0.0
2015-Jul-15 14:32S 29°53' E 031°03'0 0.0
2015-Jul-15 11:32S 29°53' E 031°03'0 0.0
2015-Jul-15 10:32S 29°53' E 031°03'0 0.0
2015-Jul-15 09:32S 29°53' E 031°03'0 0.0
2015-Jul-15 08:32S 29°53' E 031°03'0 0.0
2015-Jul-15 07:32S 29°53' E 031°03'0 0.0
2015-Jul-15 06:32S 29°53' E 031°03'0 0.0
2015-Jul-15 05:32S 29°53' E 031°03'0 0.0
2015-Jul-15 04:32S 29°53' E 031°03'0 0.0
2015-Jul-15 03:32S 29°53' E 031°03'0 0.0
2015-Jul-15 02:32S 29°53' E 031°03'0 0.0
2015-Jul-15 01:32S 29°53' E 031°03'0 0.0
2015-Jul-15 00:32S 29°53' E 031°03'0 0.0
2015-Jul-14 23:32S 29°53' E 031°03'0 0.0
2015-Jul-14 22:32S 29°53' E 031°03'0 0.0
2015-Jul-14 21:32S 29°53' E 031°03'0 0.0
2015-Jul-14 20:32S 29°53' E 031°03'0 0.0
2015-Jul-14 19:32S 29°53' E 031°03'1 1.1
2015-Jul-14 18:33S 29°52' E 031°03'6 6.3
2015-Jul-14 17:33S 29°48' E 031°09'3 3.3
2015-Jul-14 16:31S 29°46' E 031°12'0 0.0
2015-Jul-14 15:31S 29°46' E 031°12'0 0.0
2015-Jul-14 14:31S 29°46' E 031°12'0 0.0
2015-Jul-14 13:31S 29°46' E 031°12'0 0.0
2015-Jul-14 12:31S 29°46' E 031°12'0 0.0
2015-Jul-14 11:31S 29°46' E 031°12'0 0.0
2015-Jul-14 10:31S 29°46' E 031°12'0 0.0
2015-Jul-14 09:31S 29°46' E 031°12'0 0.0
2015-Jul-14 08:31S 29°46' E 031°12'0 0.0
2015-Jul-14 07:31S 29°46' E 031°12'0 0.0
2015-Jul-14 06:31S 29°46' E 031°12'0 0.0
2015-Jul-14 05:31S 29°46' E 031°12'0 0.0
2015-Jul-14 04:31S 29°46' E 031°12'0 0.0
2015-Jul-14 03:28S 29°46' E 031°12'0 0.0
2015-Jul-14 02:31S 29°46' E 031°12'0 0.0
2015-Jul-14 01:31S 29°46' E 031°12'0 0.0
2015-Jul-14 00:31S 29°46' E 031°12'0 0.0
2015-Jul-13 23:31S 29°46' E 031°12'0 0.0
2015-Jul-13 22:31S 29°46' E 031°12'0 0.0
2015-Jul-13 21:31S 29°46' E 031°12'0 0.0
2015-Jul-13 20:31S 29°46' E 031°12'0 0.0
2015-Jul-13 19:31S 29°46' E 031°12'0 0.0
2015-Jul-13 18:31S 29°46' E 031°12'0 0.0
2015-Jul-13 17:31S 29°46' E 031°12'7 7.4
2015-Jul-13 16:32S 29°53' E 031°08'1212.4
2015-Jul-13 15:33S 30°05' E 031°08'1212.2
2015-Jul-13 14:33S 30°17' E 031°04'  
Track history (hours):
 
Tides and Currents Weather Stations Pressure Air Temp Water Temp Dewpoint Dewpoint Depression Visibility Wind Speed Wind Dir Waves Ship Positions

Norient Star

Last reported at 2015-Jul-16 16:32 UTC. Time now 2015-Jul-31 01:02 UTC.
Position S 29°42' E 031°42'.
Warning: this ship's position is 14 days out of date.

; draft 9.8 m.

Type: Tanker. MMSI: 249434000.

Date/timePositionNaut miles runAvg speedWind from/ knotsBaromVisibWave heightAir tempDewpointWater temp
2015-Jul-16 16:32S 29°42' E 031°42'1111.3
2015-Jul-16 15:33S 29°45' E 031°30'1313.0
2015-Jul-16 14:33S 29°48' E 031°15'1010.4
2015-Jul-16 13:33S 29°52' E 031°04'2 1.8
2015-Jul-16 12:32S 29°53' E 031°03'0 0.0
2015-Jul-16 11:32S 29°53' E 031°03'0 0.0
2015-Jul-16 10:32S 29°53' E 031°03'0 0.0
2015-Jul-16 09:32S 29°53' E 031°03'0 0.0
2015-Jul-16 08:32S 29°53' E 031°03'0 0.0
2015-Jul-16 07:32S 29°53' E 031°03'0 0.0
2015-Jul-16 06:32S 29°53' E 031°03'0 0.0
2015-Jul-16 05:32S 29°53' E 031°03'0 0.0
2015-Jul-16 04:32S 29°53' E 031°03'0 0.0
2015-Jul-16 03:32S 29°53' E 031°03'0 0.0
2015-Jul-16 02:32S 29°53' E 031°03'0 0.0
2015-Jul-16 01:32S 29°53' E 031°03'0 0.0
2015-Jul-16 00:32S 29°53' E 031°03'0 0.0
2015-Jul-15 23:32S 29°53' E 031°03'0 0.0
2015-Jul-15 22:32S 29°53' E 031°03'0 0.0
2015-Jul-15 21:32S 29°53' E 031°03'0 0.0
2015-Jul-15 20:32S 29°53' E 031°03'0 0.0
2015-Jul-15 19:32S 29°53' E 031°03'0 0.0
2015-Jul-15 18:32S 29°53' E 031°03'0 0.0
2015-Jul-15 17:32S 29°53' E 031°03'0 0.0
2015-Jul-15 16:32S 29°53' E 031°03'0 0.0
2015-Jul-15 15:32S 29°53' E 031°03'0 0.0
2015-Jul-15 14:32S 29°53' E 031°03'0 0.0
2015-Jul-15 11:32S 29°53' E 031°03'0 0.0
2015-Jul-15 10:32S 29°53' E 031°03'0 0.0
2015-Jul-15 09:32S 29°53' E 031°03'0 0.0
2015-Jul-15 08:32S 29°53' E 031°03'0 0.0
2015-Jul-15 07:32S 29°53' E 031°03'0 0.0
2015-Jul-15 06:32S 29°53' E 031°03'0 0.0
2015-Jul-15 05:32S 29°53' E 031°03'0 0.0
2015-Jul-15 04:32S 29°53' E 031°03'0 0.0
2015-Jul-15 03:32S 29°53' E 031°03'0 0.0
2015-Jul-15 02:32S 29°53' E 031°03'0 0.0
2015-Jul-15 01:32S 29°53' E 031°03'0 0.0
2015-Jul-15 00:32S 29°53' E 031°03'0 0.0
2015-Jul-14 23:32S 29°53' E 031°03'0 0.0
2015-Jul-14 22:32S 29°53' E 031°03'0 0.0
2015-Jul-14 21:32S 29°53' E 031°03'0 0.0
2015-Jul-14 20:32S 29°53' E 031°03'0 0.0
2015-Jul-14 19:32S 29°53' E 031°03'1 1.1
2015-Jul-14 18:33S 29°52' E 031°03'6 6.3
2015-Jul-14 17:33S 29°48' E 031°09'3 3.3
2015-Jul-14 16:31S 29°46' E 031°12'0 0.0
2015-Jul-14 15:31S 29°46' E 031°12'0 0.0
2015-Jul-14 14:31S 29°46' E 031°12'0 0.0
2015-Jul-14 13:31S 29°46' E 031°12'0 0.0
2015-Jul-14 12:31S 29°46' E 031°12'0 0.0
2015-Jul-14 11:31S 29°46' E 031°12'0 0.0
2015-Jul-14 10:31S 29°46' E 031°12'0 0.0
2015-Jul-14 09:31S 29°46' E 031°12'0 0.0
2015-Jul-14 08:31S 29°46' E 031°12'0 0.0
2015-Jul-14 07:31S 29°46' E 031°12'0 0.0
2015-Jul-14 06:31S 29°46' E 031°12'0 0.0
2015-Jul-14 05:31S 29°46' E 031°12'0 0.0
2015-Jul-14 04:31S 29°46' E 031°12'0 0.0
2015-Jul-14 03:28S 29°46' E 031°12'0 0.0
2015-Jul-14 02:31S 29°46' E 031°12'0 0.0
2015-Jul-14 01:31S 29°46' E 031°12'0 0.0
2015-Jul-14 00:31S 29°46' E 031°12'0 0.0
2015-Jul-13 23:31S 29°46' E 031°12'0 0.0
2015-Jul-13 22:31S 29°46' E 031°12'0 0.0
2015-Jul-13 21:31S 29°46' E 031°12'0 0.0
2015-Jul-13 20:31S 29°46' E 031°12'0 0.0
2015-Jul-13 19:31S 29°46' E 031°12'0 0.0
2015-Jul-13 18:31S 29°46' E 031°12'0 0.0
2015-Jul-13 17:31S 29°46' E 031°12'7 7.4
2015-Jul-13 16:32S 29°53' E 031°08'1212.4
2015-Jul-13 15:33S 30°05' E 031°08'1212.2
2015-Jul-13 14:33S 30°17' E 031°04'  

Dump ship's entire track history